Terminal Aerodrome Forecast
Issued by NWS

Home | Current Version | Previous Version | Text Only | Print | Product List | Glossary On
Versions: 1 2 3 4 5 6 7 8 9 10 11 12 13 14 15 16 17 18 19 20 21 22 23 24 25 26 27 28 29
548
FTUS41 KAKQ 011140
TAFPHF
TAF
KPHF 011140Z 0112/0212 21006KT P6SM VCSH OVC008
      TEMPO 0112/0115 3SM SHRA BR BKN012
     FM011500 19005KT P6SM BKN025 OVC050
     FM011700 18007KT P6SM SCT020 BKN050
     FM012300 19004KT P6SM SCT050
     FM020500 00000KT 3SM BR BKN050=

USA.gov is the U.S. government's official web portal to all federal, state and local government web resources and services.